Wednesday, October 22, 2014, 3:56 AM EDT

KUNV, State College, University Park Airport

Location: State College, PA, United States Lat: 40.85
Local Time: 3:56 AM EDT ( 7:56 GMT) Lon: -77.85
Time Zone: US/Eastern Elev: 1240 ft

Show me the last for .
Show Decoded

2014-10-22 03:35 METAR KUNV 220735Z AUTO 02004KT 10SM SCT021 OVC070 10/08 A2996 RMK AO2 T00950080
                 =
2014-10-22 03:15 METAR KUNV 220715Z AUTO 02005KT 10SM SCT021 OVC070 10/08 A2996 RMK AO2 T00950080
                 =
2014-10-22 02:55 METAR KUNV 220655Z AUTO 02007KT 10SM OVC070 10/08 A2996 RMK AO2 T00960080 =
2014-10-22 02:35 METAR KUNV 220635Z AUTO 02007KT 10SM OVC070 09/08 A2996 RMK AO2 T00940080 =
2014-10-22 02:15 METAR KUNV 220615Z AUTO 00000KT 10SM SCT017 SCT033 OVC070 09/08 A2996 RMK AO2
                 T00880076 =
2014-10-22 01:55 METAR KUNV 220555Z AUTO 36004KT 10SM SCT017 BKN033 OVC080 09/08 A2995 RMK AO2
                 LTG DSNT SE T00940081 10106 20094 =
2014-10-22 01:35 METAR KUNV 220535Z AUTO 02005KT 10SM BKN019 BKN033 OVC080 10/08 A2996 RMK AO2
                 T00960082 =
2014-10-22 01:15 METAR KUNV 220515Z AUTO 04005KT 10SM OVC019 10/08 A2996 RMK AO2 T00990083 =
2014-10-22 00:55 METAR KUNV 220455Z AUTO 04005KT 10SM BKN019 BKN050 OVC080 10/08 A2996 RMK AO2
                 T00980083 =
2014-10-22 00:35 METAR KUNV 220435Z AUTO 02003KT 10SM SCT019 SCT050 OVC080 10/08 A2996 RMK AO2
                 LTG DSNT SE T00980082 =
2014-10-22 00:15 METAR KUNV 220415Z AUTO 01004KT 10SM BKN019 BKN041 OVC080 10/08 A2996 RMK AO2
                 T01000083 =
2014-10-21 23:55 METAR KUNV 220355Z AUTO 36003KT 10SM SCT019 SCT039 OVC080 10/08 A2996 RMK AO2
                 T00980082 401430075 =
2014-10-21 23:35 METAR KUNV 220335Z AUTO 00000KT 10SM SCT065 OVC080 10/08 A2996 RMK AO2 T00980084
                 =
2014-10-21 23:15 METAR KUNV 220315Z AUTO 00000KT 10SM SCT065 OVC080 10/08 A2997 RMK AO2 T00960083
                 =
2014-10-21 22:55 METAR KUNV 220255Z AUTO 00000KT 10SM SCT024 SCT032 OVC060 10/09 A2997 RMK AO2
                 T01000085 =
2014-10-21 22:35 METAR KUNV 220235Z AUTO 00000KT 10SM BKN024 BKN029 OVC080 10/09 A2996 RMK AO2
                 T01000085 =
2014-10-21 22:15 METAR KUNV 220215Z AUTO 00000KT 10SM SCT028 BKN060 OVC080 10/09 A2996 RMK AO2
                 T00970087 =
2014-10-21 21:55 METAR KUNV 220155Z AUTO 00000KT 10SM SCT035 BKN060 OVC070 10/09 A2995 RMK AO2
                 T01010085 =
2014-10-21 20:53 METAR KUNV 220053Z 00000KT 7SM BKN050 OVC070 10/09 A2994 =
2014-10-21 19:53 METAR KUNV 212353Z 00000KT 7SM SCT033 OVC050 10/09 A2992 =
2014-10-21 18:53 METAR KUNV 212253Z 00000KT 7SM SCT055 OVC080 10/09 A2990 =
2014-10-21 17:53 METAR KUNV 212153Z VRB04KT 7SM OVC080 11/09 A2988 =
2014-10-21 16:53 METAR KUNV 212053Z 33005KT 7SM -RA SCT045 OVC080 11/09 A2987 =
2014-10-21 15:53 METAR KUNV 211953Z 30005KT 6SM -RA BKN021 BKN025 OVC042 11/08 A2985 =
2014-10-21 14:53 METAR KUNV 211853Z 00000KT 10SM SCT027 BKN050 BKN070 12/10 A2984 =
2014-10-21 13:53 METAR KUNV 211753Z 00000KT 6SM RA SCT027 BKN044 OVC050 12/10 A2985 =
2014-10-21 12:53 METAR KUNV 211653Z 00000KT 10SM SCT027 BKN033 OVC047 13/09 A2985 =
2014-10-21 11:53 METAR KUNV 211553Z 23004KT 10SM SCT020 BKN026 OVC085 13/09 A2986 =
2014-10-21 10:53 METAR KUNV 211453Z 25007KT 10SM BKN018 OVC030 11/09 A2986 =
2014-10-21 08:53 METAR KUNV 211253Z 00000KT 10SM SCT017 OVC048 08/08 A2986 =
2014-10-21 07:53 METAR KUNV 211153Z 00000KT 10SM OVC043 08/08 A2985 =
2014-10-21 06:53 METAR KUNV 211053Z 00000KT 10SM BKN025 OVC050 08/07 A2984 =
2014-10-21 05:53 METAR KUNV 210953Z 00000KT 7SM SCT026 BKN050 OVC075 08/07 A2983 =
2014-10-21 05:35 METAR KUNV 210935Z AUTO 00000KT 10SM BKN026 BKN041 OVC075 08/07 A2983 RMK AO2
                 T00800071 =
2014-10-21 05:15 METAR KUNV 210915Z AUTO 00000KT 10SM BKN030 OVC042 08/07 A2984 RMK AO2 T00780070
                 =
2014-10-21 04:55 METAR KUNV 210855Z AUTO 00000KT 10SM SCT032 BKN085 OVC110 08/07 A2984 RMK AO2
                 60001 T00750070 =
2014-10-21 04:35 METAR KUNV 210835Z AUTO 00000KT 10SM SCT036 BKN070 OVC085 08/07 A2984 RMK AO2
                 P0003 T00800068 =
2014-10-21 04:15 METAR KUNV 210815Z AUTO 00000KT 7SM -RA SCT028 BKN037 OVC048 08/07 A2984 RMK AO2
                 P0003 T00820066 =

Support USWX by starting your Amazon purchase here.